createdAt,value
2019-05-03T00:01:02.266Z,99961.53
2019-05-03T00:03:28.974Z,99961.53
2019-05-03T00:05:58.891Z,99951.75
2019-05-03T00:08:25.659Z,99951.80
2019-05-03T00:10:52.385Z,99960.48
2019-05-03T00:13:19.166Z,99959.73
2019-05-03T00:16:05.544Z,99962.95
2019-05-03T00:18:32.742Z,99975.50
2019-05-03T00:21:02.164Z,99975.30
2019-05-03T00:23:29.852Z,99974.52
2019-05-03T00:25:56.582Z,99975.05
2019-05-03T00:28:23.362Z,99963.77
2019-05-03T00:30:51.852Z,99968.27
2019-05-03T00:33:19.497Z,99966.64
2019-05-03T00:36:06.095Z,99961.46
2019-05-03T00:38:33.080Z,99974.19
2019-05-03T00:41:01.746Z,99963.19
2019-05-03T00:43:28.615Z,99970.13
2019-05-03T00:45:55.342Z,99973.97
2019-05-03T00:48:22.101Z,99972.88
2019-05-03T00:51:08.443Z,99990.48
2019-05-03T00:53:35.204Z,99986.34
2019-05-03T00:56:01.942Z,99982.00
2019-05-03T00:58:28.805Z,99980.14
2019-05-03T01:00:55.684Z,99977.11
2019-05-03T01:03:22.546Z,99978.09
2019-05-03T01:05:49.676Z,99977.81
2019-05-03T01:08:16.758Z,99977.44
2019-05-03T01:10:43.498Z,99989.96
2019-05-03T01:13:12.233Z,99979.53
2019-05-03T01:18:41.822Z,99986.92
2019-05-03T01:21:31.752Z,99989.34
2019-05-03T01:23:58.996Z,100003.66
2019-05-03T01:26:25.694Z,100002.47
2019-05-03T01:28:52.506Z,100002.69
2019-05-03T01:31:19.469Z,99998.91
2019-05-03T01:33:46.247Z,100002.01
2019-05-03T01:36:12.970Z,100015.94
2019-05-03T01:38:39.923Z,100007.20
2019-05-03T01:41:06.657Z,100013.20
2019-05-03T01:43:33.390Z,100015.12
2019-05-03T01:46:00.229Z,100019.29
2019-05-03T01:48:46.574Z,100023.14
2019-05-03T01:51:33.007Z,100030.39
2019-05-03T01:54:01.369Z,100034.03
2019-05-03T01:56:28.488Z,100031.70
2019-05-03T01:58:55.453Z,100026.18
2019-05-03T02:04:35.731Z,100035.00
2019-05-03T02:07:22.397Z,100033.95
2019-05-03T02:09:51.888Z,100045.53
2019-05-03T02:12:18.580Z,100046.80
2019-05-03T02:14:45.322Z,100059.33
2019-05-03T02:17:12.557Z,100055.54
2019-05-03T02:19:39.224Z,100059.30
2019-05-03T02:22:06.081Z,100051.08
2019-05-03T02:24:54.415Z,100062.66
2019-05-03T02:27:22.000Z,100062.28
2019-05-03T02:29:52.309Z,100054.90
2019-05-03T02:32:33.210Z,100065.50
2019-05-03T02:35:02.544Z,100064.27
2019-05-03T02:37:28.871Z,100066.79
2019-05-03T02:43:10.254Z,100069.83
2019-05-03T02:51:03.219Z,100064.20
2019-05-03T02:53:29.969Z,100074.90
2019-05-03T02:56:13.006Z,100065.92
2019-05-03T02:58:25.589Z,100072.48
2019-05-03T03:04:16.003Z,100086.16
2019-05-03T03:07:25.971Z,100080.91
2019-05-03T03:10:12.439Z,100089.12
2019-05-03T03:13:20.356Z,100091.81
2019-05-03T03:16:28.240Z,100099.41
2019-05-03T03:19:36.005Z,100099.36
2019-05-03T03:22:45.661Z,100101.44
2019-05-03T03:25:55.896Z,100101.55
2019-05-03T03:28:25.293Z,100105.81
2019-05-03T03:31:30.816Z,100111.05
2019-05-03T03:34:19.034Z,100126.73
2019-05-03T03:37:29.389Z,100120.37
2019-05-03T03:39:56.281Z,100129.76
2019-05-03T03:42:25.157Z,100132.47
2019-05-03T03:44:52.144Z,100129.41
2019-05-03T03:47:40.492Z,100134.34
2019-05-03T03:50:08.225Z,100131.34
2019-05-03T03:52:36.812Z,100141.85
2019-05-03T03:55:06.445Z,100150.01
2019-05-03T03:57:55.778Z,100149.20
2019-05-03T04:00:25.532Z,100153.16
2019-05-03T04:03:32.939Z,100164.81
2019-05-03T04:06:00.026Z,100158.66
2019-05-03T04:08:27.148Z,100165.01
2019-05-03T04:10:55.893Z,100171.72
2019-05-03T04:16:20.993Z,100171.80
2019-05-03T04:22:01.431Z,100176.37
2019-05-03T04:24:28.856Z,100180.41
2019-05-03T04:27:36.733Z,100187.39
2019-05-03T04:30:05.899Z,100195.12
2019-05-03T04:32:32.608Z,100188.41
2019-05-03T04:34:59.522Z,100198.33
2019-05-03T04:37:26.808Z,100199.30
2019-05-03T04:39:56.211Z,100202.70
2019-05-03T04:42:25.387Z,100205.72
2019-05-03T04:44:56.224Z,100208.95
2019-05-03T04:47:26.049Z,100221.05
2019-05-03T04:49:55.280Z,100219.98
2019-05-03T04:52:21.405Z,100216.86
2019-05-03T04:55:08.020Z,100222.75
2019-05-03T04:57:40.662Z,100220.70
2019-05-03T05:00:06.028Z,100221.88
2019-05-03T05:02:35.415Z,100229.12
2019-05-03T05:05:02.304Z,100226.89
2019-05-03T05:07:48.661Z,100230.80
2019-05-03T05:10:15.676Z,100230.16
2019-05-03T05:12:42.351Z,100233.86
2019-05-03T05:15:09.343Z,100241.59
2019-05-03T05:17:56.735Z,100240.09
2019-05-03T05:23:16.692Z,100242.21
2019-05-03T05:28:42.028Z,100244.11
2019-05-03T05:31:08.910Z,100245.20
2019-05-03T05:33:35.757Z,100255.89
2019-05-03T05:36:04.729Z,100262.51
2019-05-03T05:38:31.946Z,100258.00
2019-05-03T05:40:59.038Z,100259.15
2019-05-03T05:43:26.257Z,100261.98
2019-05-03T05:45:55.208Z,100268.82
2019-05-03T05:51:05.716Z,100261.37
2019-05-03T05:53:32.374Z,100271.98
2019-05-03T05:56:18.960Z,100269.48
2019-05-03T05:59:05.423Z,100266.23
2019-05-03T06:04:29.849Z,100289.13
2019-05-03T06:10:14.705Z,100274.03
2019-05-03T06:13:15.176Z,100274.74
2019-05-03T06:15:49.635Z,100281.55
2019-05-03T06:21:28.261Z,100280.16
2019-05-03T06:24:14.885Z,100280.55
2019-05-03T06:27:01.433Z,100286.42
2019-05-03T06:29:28.462Z,100296.64
2019-05-03T06:32:15.353Z,100285.64
2019-05-03T06:34:42.674Z,100296.91
2019-05-03T06:39:59.073Z,100294.80
2019-05-03T06:42:25.810Z,100298.31
2019-05-03T06:44:54.123Z,100293.21
2019-05-03T06:47:46.032Z,100287.91
2019-05-03T06:50:10.577Z,100308.77
2019-05-03T06:52:37.672Z,100298.02
2019-05-03T06:55:09.301Z,100302.18
2019-05-03T07:00:41.895Z,100299.92
2019-05-03T07:03:28.917Z,100313.61
2019-05-03T07:06:15.521Z,100315.27
2019-05-03T07:09:01.791Z,100322.39
2019-05-03T07:11:28.846Z,100315.17
2019-05-03T07:13:56.031Z,100310.56
2019-05-03T07:16:22.823Z,100314.61
2019-05-03T07:18:50.010Z,100315.23
2019-05-03T07:21:17.300Z,100319.63
2019-05-03T07:23:45.077Z,100309.89
2019-05-03T07:26:14.910Z,100330.36
2019-05-03T07:28:46.860Z,100318.55
2019-05-03T07:31:10.544Z,100318.86
2019-05-03T07:33:37.279Z,100306.09
2019-05-03T07:36:05.352Z,100321.27
2019-05-03T07:38:45.809Z,100316.69
2019-05-03T07:41:14.771Z,100318.59
2019-05-03T07:43:41.363Z,100321.90
2019-05-03T07:46:08.643Z,100317.46
2019-05-03T07:48:35.784Z,100324.22
2019-05-03T07:51:02.513Z,100320.92
2019-05-03T07:53:29.312Z,100317.06
2019-05-03T07:56:15.919Z,100331.84
2019-05-03T07:58:59.508Z,100319.05
2019-05-03T08:04:09.443Z,100315.45
2019-05-03T08:06:36.175Z,100321.34
2019-05-03T08:09:45.364Z,100318.84
2019-05-03T08:12:12.446Z,100316.25
2019-05-03T08:14:39.496Z,100334.53
2019-05-03T08:17:06.586Z,100332.52
2019-05-03T08:19:35.514Z,100334.89
2019-05-03T08:22:04.602Z,100324.37
2019-05-03T08:24:31.485Z,100324.27
2019-05-03T08:26:58.198Z,100334.70
2019-05-03T08:29:25.022Z,100332.04
2019-05-03T08:32:11.571Z,100324.19
2019-05-03T08:34:58.216Z,100333.30
2019-05-03T08:37:29.238Z,100321.05
2019-05-03T08:40:09.054Z,100322.37
2019-05-03T08:42:35.936Z,100324.55
2019-05-03T08:45:04.553Z,100329.28
2019-05-03T08:47:32.035Z,100335.70
2019-05-03T08:49:59.127Z,100331.55
2019-05-03T08:52:26.166Z,100323.81
2019-05-03T08:54:54.979Z,100329.52
2019-05-03T08:57:22.245Z,100321.36
2019-05-03T08:59:49.755Z,100318.25
2019-05-03T09:02:17.848Z,100314.83
2019-05-03T09:04:46.426Z,100324.96
2019-05-03T09:07:15.406Z,100318.01
2019-05-03T09:13:05.551Z,100318.55
2019-05-03T09:15:31.830Z,100318.41
2019-05-03T09:17:58.922Z,100316.73
2019-05-03T09:20:26.694Z,100305.50
2019-05-03T09:22:54.964Z,100315.30
2019-05-03T09:25:24.770Z,100324.22
2019-05-03T09:27:52.232Z,100312.23
2019-05-03T09:30:19.259Z,100310.74
2019-05-03T09:32:46.060Z,100314.39
2019-05-03T09:35:27.187Z,100320.66
2019-05-03T09:37:42.216Z,100307.42
2019-05-03T09:40:09.411Z,100302.83
2019-05-03T09:42:36.581Z,100315.98
2019-05-03T09:45:04.941Z,100310.20
2019-05-03T09:47:32.846Z,100303.75
2019-05-03T09:50:02.111Z,100307.97
2019-05-03T09:52:29.371Z,100301.02
2019-05-03T09:57:50.495Z,100304.31
2019-05-03T10:00:18.045Z,100307.16
2019-05-03T10:02:45.091Z,100309.79
2019-05-03T10:05:15.584Z,100307.71
2019-05-03T10:07:42.726Z,100316.19
2019-05-03T10:10:09.598Z,100313.83
2019-05-03T10:12:36.334Z,100315.66
2019-05-03T10:15:06.355Z,100314.81
2019-05-03T10:17:51.651Z,100306.25
2019-05-03T10:20:18.681Z,100316.80
2019-05-03T10:22:45.911Z,100314.39
2019-05-03T10:25:12.890Z,100314.80
2019-05-03T10:27:59.318Z,100314.41
2019-05-03T10:30:27.778Z,100322.54
2019-05-03T10:35:48.174Z,100316.17
2019-05-03T10:38:15.229Z,100317.27
2019-05-03T10:40:42.053Z,100304.91
2019-05-03T10:43:09.586Z,100315.72
2019-05-03T10:45:36.361Z,100305.63
2019-05-03T10:48:04.818Z,100313.94
2019-05-03T10:50:31.994Z,100324.97
2019-05-03T10:56:13.366Z,100324.08
2019-05-03T10:58:40.353Z,100313.62
2019-05-03T11:01:07.480Z,100326.61
2019-05-03T11:03:34.991Z,100309.92
2019-05-03T11:06:02.155Z,100307.22
2019-05-03T11:08:30.160Z,100311.68
2019-05-03T11:10:57.992Z,100332.63
2019-05-03T11:13:26.418Z,100321.20
2019-05-03T11:15:54.903Z,100312.11
2019-05-03T11:18:25.173Z,100312.08
2019-05-03T11:20:51.770Z,100309.19
2019-05-03T11:23:18.659Z,100309.17
2019-05-03T11:26:05.205Z,100307.83
2019-05-03T11:28:32.502Z,100307.50
2019-05-03T11:31:19.244Z,100316.47
2019-05-03T11:33:46.366Z,100302.28
2019-05-03T11:36:34.774Z,100296.36
2019-05-03T11:39:01.733Z,100312.27
2019-05-03T11:44:36.345Z,100311.11
2019-05-03T11:47:05.786Z,100312.62
2019-05-03T11:49:34.722Z,100306.37
2019-05-03T11:52:02.284Z,100316.16
2019-05-03T11:54:31.594Z,100308.77
2019-05-03T11:59:34.495Z,100306.96
2019-05-03T12:02:44.772Z,100304.70
2019-05-03T12:05:32.762Z,100304.10
2019-05-03T12:07:59.870Z,100292.03
2019-05-03T12:10:44.798Z,100315.31
2019-05-03T12:13:34.916Z,100292.49
2019-05-03T12:16:04.905Z,100306.81
2019-05-03T12:18:44.913Z,100300.95
2019-05-03T12:21:01.219Z,100302.59
2019-05-03T12:23:31.947Z,100300.23
2019-05-03T12:25:59.318Z,100294.91
2019-05-03T12:28:47.049Z,100293.20
2019-05-03T12:31:29.743Z,100286.24
2019-05-03T12:33:45.755Z,100289.48
2019-05-03T12:36:12.718Z,100283.45
2019-05-03T12:38:59.467Z,100292.31
2019-05-03T12:41:27.067Z,100281.36
2019-05-03T12:43:55.138Z,100288.55
2019-05-03T12:46:23.285Z,100282.56
2019-05-03T12:49:10.217Z,100293.53
2019-05-03T12:51:38.186Z,100290.76
2019-05-03T12:54:06.010Z,100296.49
2019-05-03T12:56:35.741Z,100284.83
2019-05-03T13:02:04.852Z,100279.17
2019-05-03T13:04:34.973Z,100279.64
2019-05-03T13:07:21.753Z,100279.11
2019-05-03T13:09:48.737Z,100279.09
2019-05-03T13:15:05.088Z,100271.37
2019-05-03T13:17:55.363Z,100267.88
2019-05-03T13:20:45.446Z,100264.88
2019-05-03T13:23:13.088Z,100255.33
2019-05-03T13:25:41.196Z,100252.50
2019-05-03T13:28:09.353Z,100257.65
2019-05-03T13:30:36.375Z,100254.13
2019-05-03T13:33:05.655Z,100255.98
2019-05-03T13:35:35.104Z,100254.80
2019-05-03T13:38:25.049Z,100256.80
2019-05-03T13:43:47.240Z,100258.84
2019-05-03T13:46:15.656Z,100262.55
2019-05-03T13:48:46.670Z,100270.36
2019-05-03T13:51:14.605Z,100263.27
2019-05-03T13:53:41.464Z,100256.62
2019-05-03T13:58:42.024Z,100263.99
2019-05-03T14:01:09.445Z,100255.30
2019-05-03T14:03:36.683Z,100250.18
2019-05-03T14:06:08.338Z,100260.27
2019-05-03T14:08:35.006Z,100249.80
2019-05-03T14:11:02.349Z,100257.05
2019-05-03T14:13:29.535Z,100257.11
2019-05-03T14:16:16.631Z,100258.70
2019-05-03T14:21:54.516Z,100256.86
2019-05-03T14:24:21.502Z,100263.66
2019-05-03T14:26:48.815Z,100261.33
2019-05-03T14:29:16.022Z,100254.55
2019-05-03T14:31:45.410Z,100255.95
2019-05-03T14:34:25.745Z,100256.20
2019-05-03T14:36:55.465Z,100249.14
2019-05-03T14:39:42.674Z,100244.67
2019-05-03T14:42:09.766Z,100252.09
2019-05-03T14:44:36.983Z,100253.94
2019-05-03T14:47:05.752Z,100255.41
2019-05-03T14:49:46.008Z,100256.87
2019-05-03T14:52:14.615Z,100261.89
2019-05-03T15:03:08.712Z,100253.52
2019-05-03T15:05:35.532Z,100254.86
2019-05-03T15:08:02.611Z,100262.39
2019-05-03T15:10:29.985Z,100258.91
2019-05-03T15:12:57.003Z,100256.78
2019-05-03T15:15:25.099Z,100258.77
2019-05-03T15:17:54.923Z,100255.64
2019-05-03T15:20:22.125Z,100249.33
2019-05-03T15:22:49.652Z,100252.68
2019-05-03T15:25:17.162Z,100250.30
2019-05-03T15:27:44.820Z,100258.22
2019-05-03T15:30:35.275Z,100255.47
2019-05-03T15:33:04.991Z,100260.00
2019-05-03T15:35:34.918Z,100260.47
2019-05-03T15:38:21.326Z,100254.45
2019-05-03T15:40:49.274Z,100251.53
2019-05-03T15:43:55.962Z,100253.32
2019-05-03T15:46:44.735Z,100253.91
2019-05-03T15:49:12.489Z,100258.48
2019-05-03T15:51:39.778Z,100264.45
2019-05-03T15:54:06.880Z,100255.26
2019-05-03T15:56:34.216Z,100260.09
2019-05-03T15:59:01.720Z,100257.67
2019-05-03T16:01:48.683Z,100258.22
2019-05-03T16:04:15.787Z,100262.45
2019-05-03T16:06:44.818Z,100264.76
2019-05-03T16:09:12.661Z,100273.06
2019-05-03T16:11:39.958Z,100275.74
2019-05-03T16:14:07.075Z,100276.17
2019-05-03T16:16:35.365Z,100274.83
2019-05-03T16:19:05.395Z,100272.25
2019-05-03T16:21:34.121Z,100269.02
2019-05-03T16:24:04.883Z,100266.89
2019-05-03T16:26:32.648Z,100262.85
2019-05-03T16:29:19.422Z,100261.37
2019-05-03T16:31:46.054Z,100258.03
2019-05-03T16:34:12.804Z,100251.59
2019-05-03T16:36:40.002Z,100252.30
2019-05-03T16:39:07.346Z,100253.59
2019-05-03T16:41:35.417Z,100244.89
2019-05-03T16:44:24.360Z,100249.14
2019-05-03T16:46:52.098Z,100250.05
2019-05-03T16:49:19.173Z,100244.84
2019-05-03T16:51:46.333Z,100241.47
2019-05-03T16:54:14.596Z,100243.22
2019-05-03T16:56:44.319Z,100239.09
2019-05-03T16:59:11.566Z,100244.39
2019-05-03T17:01:39.246Z,100242.36
2019-05-03T17:04:25.937Z,100235.22
2019-05-03T17:09:55.375Z,100232.28
2019-05-03T17:15:14.480Z,100231.73
2019-05-03T17:17:42.476Z,100233.74
2019-05-03T17:20:09.695Z,100237.19
2019-05-03T17:22:36.809Z,100232.23
2019-05-03T17:25:04.700Z,100241.22
2019-05-03T17:27:34.293Z,100232.88
2019-05-03T17:30:04.513Z,100237.53
2019-05-03T17:32:51.168Z,100233.86
2019-05-03T17:35:18.471Z,100240.31
2019-05-03T17:37:45.568Z,100237.52
2019-05-03T17:40:32.457Z,100243.40
2019-05-03T17:43:19.292Z,100241.84
2019-05-03T17:48:28.753Z,100234.94
2019-05-03T17:50:56.322Z,100235.52
2019-05-03T17:53:44.997Z,100235.75
2019-05-03T17:56:47.137Z,100232.80
2019-05-03T17:59:35.099Z,100232.71
2019-05-03T18:02:22.984Z,100226.42
2019-05-03T18:05:09.949Z,100229.67
2019-05-03T18:07:56.683Z,100225.89
2019-05-03T18:12:59.236Z,100226.53
2019-05-03T18:15:26.032Z,100223.55
2019-05-03T18:17:54.742Z,100226.09
2019-05-03T18:20:22.282Z,100226.73
2019-05-03T18:22:49.386Z,100226.37
2019-05-03T18:25:16.546Z,100229.89
2019-05-03T18:27:44.585Z,100227.72
2019-05-03T18:30:13.258Z,100223.92
2019-05-03T18:32:40.507Z,100230.68
2019-05-03T18:35:07.616Z,100231.17
2019-05-03T18:37:35.106Z,100231.92
2019-05-03T18:40:02.251Z,100231.36
2019-05-03T18:42:48.923Z,100237.63
2019-05-03T18:47:55.173Z,100238.59
2019-05-03T18:50:22.305Z,100236.45
2019-05-03T18:52:49.443Z,100237.47
2019-05-03T18:55:16.633Z,100235.19
2019-05-03T18:57:46.594Z,100239.65
2019-05-03T19:00:15.357Z,100242.80
2019-05-03T19:02:44.510Z,100238.52
2019-05-03T19:05:15.188Z,100238.86
2019-05-03T19:16:46.183Z,100237.59
2019-05-03T19:22:25.035Z,100234.97
2019-05-03T19:24:52.389Z,100231.79
2019-05-03T19:27:39.649Z,100230.44
2019-05-03T19:30:26.283Z,100231.89
2019-05-03T19:33:13.355Z,100229.79
2019-05-03T19:35:40.483Z,100233.77
2019-05-03T19:38:08.894Z,100232.91
2019-05-03T19:40:56.677Z,100228.52
2019-05-03T19:43:24.382Z,100226.30
2019-05-03T19:45:53.701Z,100229.79
2019-05-03T19:48:21.135Z,100230.73
2019-05-03T19:50:48.285Z,100227.03
2019-05-03T19:55:58.998Z,100236.84
2019-05-03T19:58:39.296Z,100226.97
2019-05-03T20:01:26.338Z,100229.17
2019-05-03T20:09:39.115Z,100229.69
2019-05-03T20:12:06.589Z,100227.80
2019-05-03T20:14:35.748Z,100225.69
2019-05-03T20:17:04.730Z,100226.93
2019-05-03T20:19:32.237Z,100224.34
2019-05-03T20:21:59.354Z,100219.16
2019-05-03T20:24:26.455Z,100221.47
2019-05-03T20:26:53.652Z,100221.47
2019-05-03T20:29:20.736Z,100215.60
2019-05-03T20:31:47.982Z,100215.42
2019-05-03T20:34:15.815Z,100216.22
2019-05-03T20:36:45.339Z,100220.26
2019-05-03T20:39:14.844Z,100219.16
2019-05-03T20:41:42.283Z,100212.73
2019-05-03T20:44:28.982Z,100216.22
2019-05-03T20:47:10.141Z,100211.94
2019-05-03T20:49:37.296Z,100208.97
2019-05-03T20:52:04.383Z,100210.11
2019-05-03T20:54:31.533Z,100207.48
2019-05-03T20:56:58.737Z,100202.09
2019-05-03T20:59:45.272Z,100197.50
2019-05-03T21:02:07.339Z,100205.41
2019-05-03T21:04:35.334Z,100200.77
2019-05-03T21:07:04.678Z,100195.38
2019-05-03T21:09:34.169Z,100198.12
2019-05-03T21:12:01.536Z,100197.35
2019-05-03T21:14:28.672Z,100192.55
2019-05-03T21:17:15.400Z,100193.33
2019-05-03T21:20:02.107Z,100195.75
2019-05-03T21:22:48.759Z,100202.75
2019-05-03T21:25:46.911Z,100192.97
2019-05-03T21:28:04.904Z,100192.63
2019-05-03T21:30:32.916Z,100189.01
2019-05-03T21:33:01.432Z,100188.94
2019-05-03T21:35:40.820Z,100190.73
2019-05-03T21:37:57.580Z,100190.64
2019-05-03T21:40:24.667Z,100196.20
2019-05-03T21:42:52.025Z,100198.50
2019-05-03T21:48:31.766Z,100195.38
2019-05-03T21:50:58.408Z,100194.31
2019-05-03T21:53:25.819Z,100197.80
2019-05-03T21:55:52.952Z,100192.75
2019-05-03T21:58:20.061Z,100192.23
2019-05-03T22:01:05.130Z,100187.22
2019-05-03T22:03:32.301Z,100188.36
2019-05-03T22:05:59.418Z,100184.91
2019-05-03T22:08:26.522Z,100187.05
2019-05-03T22:10:55.469Z,100186.61
2019-05-03T22:13:24.566Z,100181.11
2019-05-03T22:18:31.389Z,100183.09
2019-05-03T22:24:07.452Z,100185.10
2019-05-03T22:26:54.109Z,100184.70
2019-05-03T22:29:21.238Z,100186.55
2019-05-03T22:31:48.653Z,100187.84
2019-05-03T22:34:35.266Z,100185.38
2019-05-03T22:37:02.351Z,100181.08
2019-05-03T22:39:29.435Z,100182.24
2019-05-03T22:41:56.641Z,100188.97
2019-05-03T22:44:25.332Z,100185.38
2019-05-03T22:46:52.718Z,100179.63
2019-05-03T22:49:19.881Z,100179.94
2019-05-03T22:51:47.014Z,100177.77
2019-05-03T22:54:15.363Z,100170.41
2019-05-03T22:56:44.737Z,100167.02
2019-05-03T22:59:14.516Z,100166.40
2019-05-03T23:01:41.756Z,100156.95
2019-05-03T23:04:08.883Z,100160.30
2019-05-03T23:06:35.995Z,100149.83
2019-05-03T23:09:44.670Z,100151.50
2019-05-03T23:12:11.580Z,100148.47
2019-05-03T23:14:38.580Z,100145.09
2019-05-03T23:17:05.556Z,100139.49
2019-05-03T23:25:02.112Z,100122.11
2019-05-03T23:27:29.244Z,100132.33
2019-05-03T23:29:56.350Z,100134.70
2019-05-03T23:32:24.480Z,100138.63
2019-05-03T23:34:54.426Z,100131.27
2019-05-03T23:37:22.028Z,100133.00
2019-05-03T23:39:49.160Z,100119.19
2019-05-03T23:42:16.256Z,100120.75
2019-05-03T23:44:45.681Z,100112.15
2019-05-03T23:47:34.355Z,100112.03
2019-05-03T23:50:01.253Z,100109.47
2019-05-03T23:52:48.060Z,100109.14
2019-05-03T23:57:55.436Z,100104.74
